Time;durP1;ratioP1;P1;durP2;ratioP2;P2;SDS_P1;SDS_P2;PMS_P1;PMS_P2;Temp;Humidity;BMP_temperature;BMP_pressure;BME280_temperature;BME280_humidity;BME280_pressure;Samples;Min_cycle;Max_cycle;Signal;HPM_P1;HPM_P2
2021/07/29 00:00:06;;;;;;;1.30;1.20;;;17.40;98.00;;;;;;5091436;28;20452;-68
2021/07/29 00:02:34;;;;;;;1.87;1.37;;;17.30;98.00;;;;;;5091324;28;20489;-68
2021/07/29 00:05:01;;;;;;;1.30;1.20;;;17.10;98.00;;;;;;5091981;28;20509;-68
2021/07/29 00:07:29;;;;;;;1.30;1.20;;;17.10;98.00;;;;;;5090912;28;20487;-69
2021/07/29 00:09:56;;;;;;;1.20;1.10;;;17.30;98.00;;;;;;5091466;28;20822;-68
2021/07/29 00:12:23;;;;;;;2.10;1.37;;;17.10;98.00;;;;;;5073506;28;20484;-67
2021/07/29 00:14:51;;;;;;;1.57;1.20;;;16.90;98.00;;;;;;5091402;28;20480;-67
2021/07/29 00:17:29;;;;;;;1.40;1.10;;;17.00;98.00;;;;;;5073530;28;20479;-68
2021/07/29 00:19:55;;;;;;;1.57;1.43;;;16.90;98.00;;;;;;5091508;28;20464;-67
2021/07/29 00:22:22;;;;;;;1.73;1.40;;;17.00;98.00;;;;;;5091242;28;20464;-68
2021/07/29 00:24:51;;;;;;;2.10;1.33;;;16.80;98.00;;;;;;5091256;28;21011;-68
2021/07/29 00:27:17;;;;;;;1.20;1.00;;;16.80;98.00;;;;;;5072845;28;21026;-69
2021/07/29 00:29:46;;;;;;;1.40;1.17;;;16.80;98.00;;;;;;5091460;28;20491;-68
2021/07/29 00:32:13;;;;;;;1.43;1.30;;;16.80;98.00;;;;;;5090874;28;20495;-69
2021/07/29 00:34:40;;;;;;;1.20;1.20;;;16.70;98.00;;;;;;5073153;28;20506;-68
2021/07/29 00:37:08;;;;;;;1.33;1.30;;;16.80;98.00;;;;;;5091096;28;20508;-67
2021/07/29 00:39:36;;;;;;;1.20;1.10;;;16.80;98.00;;;;;;5090901;28;21025;-69
2021/07/29 00:42:04;;;;;;;1.20;1.10;;;16.80;98.00;;;;;;5091017;28;20486;-68
2021/07/29 00:44:34;;;;;;;1.30;1.30;;;16.70;98.00;;;;;;5090912;28;20456;-69
2021/07/29 00:47:02;;;;;;;2.13;1.23;;;16.80;98.00;;;;;;5091063;28;20992;-68
2021/07/29 00:49:30;;;;;;;1.20;1.10;;;16.70;98.00;;;;;;5090912;28;20968;-67
2021/07/29 00:51:57;;;;;;;1.20;1.10;;;16.70;98.00;;;;;;5090899;28;20523;-67
2021/07/29 00:54:27;;;;;;;1.20;1.00;;;16.70;98.00;;;;;;5090675;28;20874;-68
2021/07/29 00:56:55;;;;;;;1.63;1.40;;;16.90;98.00;;;;;;5090924;28;20455;-67
2021/07/29 00:59:24;;;;;;;1.30;1.10;;;16.80;98.00;;;;;;5090751;28;20456;-69
2021/07/29 01:01:52;;;;;;;2.27;1.30;;;16.70;98.00;;;;;;5090759;28;20505;-68
2021/07/29 01:04:19;;;;;;;1.20;1.00;;;16.70;98.00;;;;;;5072475;28;20534;-68
2021/07/29 01:06:47;;;;;;;1.20;1.10;;;16.70;98.00;;;;;;5090797;28;21019;-68
2021/07/29 01:09:13;;;;;;;1.30;1.20;;;16.70;98.00;;;;;;5090505;28;20488;-67
2021/07/29 01:11:42;;;;;;;1.30;1.17;;;16.60;98.00;;;;;;5090747;28;20519;-68
2021/07/29 01:14:10;;;;;;;1.40;1.20;;;16.50;98.00;;;;;;5090628;28;20938;-67
2021/07/29 01:16:38;;;;;;;1.20;1.10;;;16.60;98.00;;;;;;5090522;28;20456;-67
2021/07/29 01:19:07;;;;;;;1.20;1.13;;;16.60;98.00;;;;;;5091525;28;20559;-68
2021/07/29 01:21:36;;;;;;;1.57;1.23;;;16.60;98.00;;;;;;5094449;28;20939;-69
2021/07/29 01:24:04;;;;;;;1.30;1.10;;;16.60;98.00;;;;;;5094376;28;20860;-67
2021/07/29 01:26:32;;;;;;;1.20;1.00;;;16.90;98.00;;;;;;5094458;28;20925;-67
2021/07/29 01:29:03;;;;;;;1.20;1.00;;;16.90;98.00;;;;;;5094293;28;20498;-68
2021/07/29 01:31:30;;;;;;;1.50;1.33;;;17.00;98.00;;;;;;5094245;28;20487;-66
2021/07/29 01:34:05;;;;;;;1.20;1.20;;;16.90;98.00;;;;;;5094406;28;20451;-67
2021/07/29 01:36:33;;;;;;;1.50;1.37;;;17.10;98.00;;;;;;5094510;28;20538;-68
2021/07/29 01:39:01;;;;;;;1.20;1.10;;;17.10;98.00;;;;;;5094254;28;20460;-67
2021/07/29 01:41:29;;;;;;;1.30;1.10;;;17.00;98.00;;;;;;5094368;28;20460;-66
2021/07/29 01:43:56;;;;;;;1.20;1.00;;;16.90;98.00;;;;;;5094152;28;20452;-67
2021/07/29 01:46:24;;;;;;;1.40;1.30;;;16.80;98.00;;;;;;5094124;28;20460;-68
2021/07/29 01:48:50;;;;;;;1.20;1.10;;;16.90;98.00;;;;;;5076061;28;20491;-68
2021/07/29 01:51:17;;;;;;;1.77;1.27;;;16.80;98.00;;;;;;5093877;28;20572;-68
2021/07/29 01:53:44;;;;;;;1.20;0.90;;;16.80;98.00;;;;;;5093836;28;20525;-67
2021/07/29 01:56:14;;;;;;;1.30;1.00;;;16.80;98.00;;;;;;5094752;28;20455;-68
2021/07/29 01:58:41;;;;;;;1.20;1.03;;;16.80;98.00;;;;;;5093696;28;20517;-70
2021/07/29 02:01:08;;;;;;;1.20;1.10;;;16.80;98.00;;;;;;5093795;28;20517;-68
2021/07/29 02:03:37;;;;;;;1.73;1.10;;;16.60;98.00;;;;;;5075501;28;20475;-67
2021/07/29 02:06:04;;;;;;;1.20;1.00;;;16.50;98.00;;;;;;5093845;28;20488;-68
2021/07/29 02:08:31;;;;;;;1.70;1.37;;;16.50;98.00;;;;;;5093572;28;20483;-67
2021/07/29 02:10:58;;;;;;;1.87;1.00;;;16.60;98.00;;;;;;5093404;28;20522;-67
2021/07/29 02:13:26;;;;;;;1.40;1.27;;;16.70;98.00;;;;;;5093405;28;20460;-67
2021/07/29 02:15:53;;;;;;;1.20;1.13;;;16.60;98.00;;;;;;5093501;28;20491;-68
2021/07/29 02:18:20;;;;;;;1.30;1.10;;;16.60;98.00;;;;;;5093379;28;20598;-67
2021/07/29 02:20:47;;;;;;;1.30;1.10;;;16.60;98.00;;;;;;5093324;28;20468;-67
2021/07/29 02:23:14;;;;;;;1.40;1.40;;;16.50;98.00;;;;;;5093279;28;20448;-67
2021/07/29 02:25:43;;;;;;;1.30;1.30;;;16.40;98.00;;;;;;5093305;28;20452;-67
2021/07/29 02:28:11;;;;;;;1.20;1.00;;;16.50;98.00;;;;;;5093158;28;20961;-69
2021/07/29 02:30:39;;;;;;;1.50;1.37;;;16.40;98.00;;;;;;5092367;28;20459;-67
2021/07/29 02:33:07;;;;;;;1.20;1.00;;;16.50;98.00;;;;;;5093085;28;20456;-68
2021/07/29 02:35:34;;;;;;;1.23;1.13;;;16.30;98.00;;;;;;5092819;28;20456;-68
2021/07/29 02:38:01;;;;;;;1.30;1.30;;;16.50;98.00;;;;;;5075296;28;20491;-68
2021/07/29 02:40:28;;;;;;;1.40;1.10;;;16.50;98.00;;;;;;5093160;28;20455;-69
2021/07/29 02:42:55;;;;;;;1.20;1.00;;;16.40;98.00;;;;;;5092937;28;20448;-68
2021/07/29 02:45:22;;;;;;;1.40;1.30;;;16.40;98.00;;;;;;5092811;28;20517;-68
2021/07/29 02:47:51;;;;;;;1.50;1.30;;;16.50;98.00;;;;;;5092827;28;20459;-68
2021/07/29 02:50:18;;;;;;;1.20;1.10;;;16.40;98.00;;;;;;5093124;28;20452;-68
2021/07/29 02:52:45;;;;;;;1.20;1.10;;;16.50;98.00;;;;;;5092721;28;21013;-67
2021/07/29 02:55:15;;;;;;;2.33;1.40;;;16.30;98.00;;;;;;5092953;28;20533;-68
2021/07/29 02:57:42;;;;;;;2.33;1.60;;;16.30;98.00;;;;;;5092475;28;20463;-68
2021/07/29 03:00:10;;;;;;;1.30;1.20;;;16.30;98.00;;;;;;5092973;28;20455;-69
2021/07/29 03:02:37;;;;;;;1.80;1.50;;;16.40;98.00;;;;;;5057962;28;20468;-67
2021/07/29 03:05:06;;;;;;;1.30;1.07;;;16.20;98.00;;;;;;5092696;28;20456;-68
2021/07/29 03:07:33;;;;;;;1.30;1.23;;;16.10;98.00;;;;;;5092534;28;20943;-68
2021/07/29 03:10:00;;;;;;;1.20;1.00;;;16.00;98.00;;;;;;5092464;28;20580;-67
2021/07/29 03:12:30;;;;;;;1.20;1.10;;;16.10;98.00;;;;;;5092251;28;20540;-69
2021/07/29 03:14:57;;;;;;;1.50;1.50;;;16.10;98.00;;;;;;5074674;28;20762;-67
2021/07/29 03:17:24;;;;;;;1.20;1.07;;;16.00;98.00;;;;;;5092199;28;20464;-67
2021/07/29 03:19:51;;;;;;;1.20;1.10;;;16.10;98.00;;;;;;5092026;28;20468;-67
2021/07/29 03:22:21;;;;;;;1.63;1.37;;;16.20;98.00;;;;;;5092147;28;20966;-68
2021/07/29 03:24:48;;;;;;;1.30;1.10;;;16.20;98.00;;;;;;5074475;28;20478;-67
2021/07/29 03:27:18;;;;;;;1.40;1.30;;;16.20;98.00;;;;;;5092061;28;20456;-69
2021/07/29 03:29:45;;;;;;;1.77;1.30;;;16.20;98.00;;;;;;5092059;28;20938;-68
2021/07/29 03:32:12;;;;;;;1.40;1.10;;;16.20;98.00;;;;;;5091821;28;20559;-68
2021/07/29 03:34:39;;;;;;;1.83;1.10;;;16.00;98.00;;;;;;5091831;28;20455;-68
2021/07/29 03:37:06;;;;;;;1.20;1.20;;;16.00;98.00;;;;;;5091861;28;20514;-68
2021/07/29 03:39:35;;;;;;;1.93;1.20;;;16.00;98.00;;;;;;5091627;28;20464;-68
2021/07/29 03:42:02;;;;;;;1.20;1.20;;;15.80;98.00;;;;;;5090922;28;20942;-68
2021/07/29 03:44:29;;;;;;;1.20;1.10;;;15.80;98.00;;;;;;5091660;28;20867;-68
2021/07/29 03:46:56;;;;;;;1.20;1.07;;;15.90;98.00;;;;;;5091702;28;20456;-68
2021/07/29 03:49:23;;;;;;;1.37;1.33;;;15.90;98.00;;;;;;5091730;28;20978;-67
2021/07/29 03:51:50;;;;;;;1.20;1.00;;;16.00;98.00;;;;;;5091387;28;20515;-67
2021/07/29 03:54:17;;;;;;;1.20;0.97;;;15.90;98.00;;;;;;5091471;28;20978;-68
2021/07/29 03:56:46;;;;;;;1.20;1.10;;;16.00;98.00;;;;;;5091551;28;20495;-68
2021/07/29 03:59:14;;;;;;;2.03;1.33;;;15.90;98.00;;;;;;5091370;28;20535;-69
2021/07/29 04:01:41;;;;;;;1.30;1.23;;;16.00;98.00;;;;;;5091424;28;20495;-68
2021/07/29 04:04:08;;;;;;;1.87;1.30;;;16.10;98.00;;;;;;5091360;28;20513;-68
2021/07/29 04:06:35;;;;;;;1.20;1.10;;;16.00;98.00;;;;;;5091522;28;20526;-68
2021/07/29 04:09:02;;;;;;;1.60;1.10;;;15.90;98.00;;;;;;5091273;28;20771;-68
2021/07/29 04:11:29;;;;;;;1.70;1.20;;;16.00;98.00;;;;;;5091375;28;20483;-68
2021/07/29 04:13:58;;;;;;;1.20;1.00;;;15.90;98.00;;;;;;5091169;28;20898;-67
2021/07/29 04:16:25;;;;;;;1.80;1.50;;;15.80;98.00;;;;;;5091446;28;20985;-68
2021/07/29 04:18:51;;;;;;;1.20;1.13;;;15.80;98.00;;;;;;5091066;28;20870;-67
2021/07/29 04:21:18;;;;;;;1.53;1.20;;;15.70;98.00;;;;;;5091373;28;20496;-67
2021/07/29 04:23:45;;;;;;;1.33;1.10;;;15.90;98.00;;;;;;5091132;28;20467;-68
2021/07/29 04:26:13;;;;;;;1.30;1.10;;;15.90;98.00;;;;;;5073636;28;20769;-67
2021/07/29 04:28:41;;;;;;;2.73;1.53;;;15.90;98.00;;;;;;5091553;28;20512;-66
2021/07/29 04:31:09;;;;;;;1.20;1.20;;;16.10;98.00;;;;;;5091113;28;20533;-67
2021/07/29 04:33:36;;;;;;;1.40;1.20;;;16.00;98.00;;;;;;5090721;28;20483;-67
2021/07/29 04:36:06;;;;;;;1.37;1.13;;;16.10;98.00;;;;;;5091020;28;20962;-67
2021/07/29 04:38:33;;;;;;;1.20;1.10;;;16.00;98.00;;;;;;5090809;28;20822;-68
2021/07/29 04:41:04;;;;;;;1.27;1.20;;;16.00;98.00;;;;;;5090882;28;20962;-67
2021/07/29 04:43:31;;;;;;;1.20;1.10;;;16.10;98.00;;;;;;5090818;28;20954;-68
2021/07/29 04:46:02;;;;;;;1.20;1.10;;;16.20;98.00;;;;;;5090786;28;20532;-68
2021/07/29 04:48:31;;;;;;;1.20;1.10;;;16.40;98.00;;;;;;5090820;28;20458;-68
2021/07/29 04:51:01;;;;;;;1.63;1.20;;;16.50;98.00;;;;;;5090259;28;20451;-66
2021/07/29 04:53:28;;;;;;;1.30;1.10;;;16.50;98.00;;;;;;5092341;28;20487;-67
2021/07/29 04:55:56;;;;;;;1.20;1.00;;;16.30;98.00;;;;;;5094989;28;20495;-68
2021/07/29 04:58:23;;;;;;;1.20;1.00;;;16.40;98.00;;;;;;5094860;28;20572;-68
2021/07/29 05:00:50;;;;;;;3.00;1.30;;;16.30;98.00;;;;;;5094844;28;20890;-68
2021/07/29 05:03:17;;;;;;;1.20;1.00;;;16.30;98.00;;;;;;5094545;28;20452;-69
2021/07/29 05:05:46;;;;;;;1.20;1.20;;;16.50;98.00;;;;;;5094055;28;20533;-67
2021/07/29 05:08:13;;;;;;;1.57;1.40;;;16.60;98.00;;;;;;5094697;28;20463;-69
2021/07/29 05:10:40;;;;;;;1.57;1.30;;;16.60;98.00;;;;;;5094802;28;20491;-67
2021/07/29 05:13:06;;;;;;;1.30;1.10;;;16.70;98.00;;;;;;5094493;28;21082;-67
2021/07/29 05:15:33;;;;;;;1.30;1.27;;;16.60;98.00;;;;;;5094739;28;20495;-67
2021/07/29 05:18:00;;;;;;;2.67;1.20;;;16.70;98.00;;;;;;5094493;28;20491;-68
2021/07/29 05:20:27;;;;;;;2.17;1.87;;;16.70;98.00;;;;;;5094429;28;20495;-68
2021/07/29 05:22:56;;;;;;;2.33;1.40;;;16.60;98.00;;;;;;5093723;28;20459;-68
2021/07/29 05:25:23;;;;;;;2.30;1.57;;;16.70;98.00;;;;;;5094602;28;20896;-69
2021/07/29 05:27:50;;;;;;;1.30;1.20;;;16.80;98.00;;;;;;5076323;28;20459;-67
2021/07/29 05:30:19;;;;;;;1.37;1.13;;;16.90;98.00;;;;;;5094408;28;20865;-68
2021/07/29 05:32:46;;;;;;;1.30;1.10;;;16.80;98.00;;;;;;5094133;28;20533;-67
2021/07/29 05:35:13;;;;;;;1.50;1.10;;;16.90;98.00;;;;;;5094396;28;20495;-68
2021/07/29 05:37:40;;;;;;;1.70;1.23;;;16.90;98.00;;;;;;5094797;28;20451;-68
2021/07/29 05:40:10;;;;;;;1.50;1.27;;;17.00;98.00;;;;;;5094489;28;20495;-68
2021/07/29 05:42:37;;;;;;;1.30;1.20;;;17.00;98.00;;;;;;5094264;28;20448;-68
2021/07/29 05:45:04;;;;;;;1.30;1.10;;;17.10;98.00;;;;;;5094283;28;20909;-68
2021/07/29 05:47:31;;;;;;;1.67;1.20;;;17.30;98.00;;;;;;5094245;28;20455;-69
2021/07/29 05:49:58;;;;;;;1.20;1.20;;;17.40;98.00;;;;;;5094683;28;20725;-68
2021/07/29 05:52:29;;;;;;;1.20;1.00;;;17.40;98.00;;;;;;5095028;28;20528;-69
2021/07/29 05:54:56;;;;;;;1.20;1.10;;;17.60;98.00;;;;;;5075747;28;20539;-68
2021/07/29 05:57:24;;;;;;;1.50;1.37;;;17.60;98.00;;;;;;5094848;28;20499;-68
2021/07/29 05:59:51;;;;;;;1.53;1.43;;;17.70;98.00;;;;;;5076661;28;20491;-68
2021/07/29 06:02:18;;;;;;;1.70;1.30;;;17.80;98.00;;;;;;5093854;28;20946;-67
2021/07/29 06:04:45;;;;;;;1.20;1.10;;;17.80;98.00;;;;;;5090286;28;20985;-67
2021/07/29 06:07:12;;;;;;;1.50;1.23;;;17.80;98.00;;;;;;5093883;28;20883;-67
2021/07/29 06:09:39;;;;;;;1.70;1.40;;;17.80;98.00;;;;;;5075658;28;20456;-69
2021/07/29 06:12:07;;;;;;;1.20;1.10;;;17.90;98.00;;;;;;5093555;28;20456;-68
2021/07/29 06:14:35;;;;;;;1.20;1.10;;;18.00;98.00;;;;;;5093538;28;20448;-68
2021/07/29 06:17:02;;;;;;;1.30;1.20;;;18.10;98.00;;;;;;5058879;28;20470;-68
2021/07/29 06:19:31;;;;;;;1.30;1.20;;;18.20;98.00;;;;;;5093289;28;20843;-68
2021/07/29 06:21:58;;;;;;;1.67;1.30;;;18.20;98.00;;;;;;5093328;28;20951;-68
2021/07/29 06:24:25;;;;;;;1.20;1.17;;;18.20;98.00;;;;;;5093272;28;20923;-68
2021/07/29 06:26:53;;;;;;;1.20;1.10;;;18.30;98.00;;;;;;5093319;28;20487;-69
2021/07/29 06:29:28;;;;;;;1.40;1.30;;;18.40;98.00;;;;;;5093349;28;20459;-69
2021/07/29 06:31:59;;;;;;;1.60;1.40;;;18.40;98.00;;;;;;5074874;28;20455;-68
2021/07/29 06:34:26;;;;;;;1.20;1.10;;;18.40;98.00;;;;;;5093235;28;20513;-68
2021/07/29 06:36:53;;;;;;;1.60;1.50;;;18.40;98.00;;;;;;5093196;28;20548;-69
2021/07/29 06:39:20;;;;;;;1.43;1.40;;;18.60;98.00;;;;;;5093104;28;20491;-68
2021/07/29 06:41:47;;;;;;;1.20;1.13;;;18.60;98.00;;;;;;5093031;28;20917;-69
2021/07/29 06:44:14;;;;;;;1.50;1.40;;;18.60;98.00;;;;;;5092997;28;20490;-69
2021/07/29 06:46:41;;;;;;;1.60;1.27;;;18.70;98.00;;;;;;5092662;28;20494;-68
2021/07/29 06:49:09;;;;;;;1.33;1.23;;;18.80;98.00;;;;;;5092778;28;20510;-69
2021/07/29 06:51:36;;;;;;;2.70;1.20;;;18.70;98.00;;;;;;5092819;28;20807;-68
2021/07/29 06:54:05;;;;;;;1.20;1.00;;;18.70;98.00;;;;;;5092750;28;20488;-68
2021/07/29 06:56:32;;;;;;;1.37;1.10;;;18.80;98.00;;;;;;5092759;28;20543;-68
2021/07/29 06:58:59;;;;;;;2.13;1.33;;;18.80;98.00;;;;;;5092805;28;20553;-69
2021/07/29 07:01:30;;;;;;;2.03;1.57;;;18.80;98.00;;;;;;5092838;28;20947;-68
2021/07/29 07:03:57;;;;;;;1.20;1.10;;;19.00;98.00;;;;;;5092552;28;20886;-67
2021/07/29 07:06:26;;;;;;;1.80;1.60;;;19.00;98.00;;;;;;5092589;28;20460;-68
2021/07/29 07:08:53;;;;;;;1.40;1.20;;;19.00;98.00;;;;;;5092678;28;20492;-68
2021/07/29 07:11:20;;;;;;;2.13;1.60;;;19.10;98.00;;;;;;5092412;28;20482;-68
2021/07/29 07:13:48;;;;;;;1.30;1.30;;;19.20;98.00;;;;;;5092323;28;20526;-68
2021/07/29 07:16:15;;;;;;;1.30;1.20;;;19.20;98.00;;;;;;5092267;28;20471;-67
2021/07/29 07:18:43;;;;;;;1.27;1.27;;;19.40;98.00;;;;;;5092470;28;20452;-68
2021/07/29 07:21:11;;;;;;;1.40;1.20;;;19.40;98.00;;;;;;5092073;28;20509;-68
2021/07/29 07:23:41;;;;;;;1.20;1.20;;;19.50;98.00;;;;;;5092051;28;20482;-68
2021/07/29 07:26:15;;;;;;;1.97;1.43;;;19.70;98.00;;;;;;5092217;28;20829;-68
2021/07/29 07:28:42;;;;;;;2.23;1.50;;;19.80;98.00;;;;;;5088551;28;21306;-68
2021/07/29 07:31:09;;;;;;;2.70;1.60;;;19.90;98.00;;;;;;5088942;28;20958;-68
2021/07/29 07:33:37;;;;;;;1.20;1.03;;;20.00;98.00;;;;;;5089062;28;20487;-69
2021/07/29 07:36:04;;;;;;;1.57;1.50;;;20.10;98.00;;;;;;5089000;28;20487;-68
2021/07/29 07:38:31;;;;;;;1.20;1.13;;;20.30;98.00;;;;;;5089160;28;20538;-69
2021/07/29 07:41:05;;;;;;;1.30;1.30;;;20.50;98.00;;;;;;5088895;28;20488;-68
2021/07/29 07:43:33;;;;;;;1.30;1.23;;;20.60;98.00;;;;;;5088686;28;20464;-68
2021/07/29 07:46:04;;;;;;;1.30;1.23;;;20.70;98.00;;;;;;5088958;28;20516;-68
2021/07/29 07:48:31;;;;;;;1.93;1.13;;;20.80;98.00;;;;;;5085852;28;20456;-67
2021/07/29 07:50:59;;;;;;;1.40;1.30;;;20.90;98.00;;;;;;5086497;28;20482;-69
2021/07/29 07:53:29;;;;;;;1.47;1.43;;;21.00;98.00;;;;;;5088641;28;20484;-68
2021/07/29 07:55:56;;;;;;;1.83;1.60;;;21.10;98.00;;;;;;5088477;28;20451;-71
2021/07/29 07:58:25;;;;;;;2.23;1.40;;;21.10;98.00;;;;;;5080189;28;20620;-68
2021/07/29 08:00:52;;;;;;;1.30;1.30;;;21.20;98.00;;;;;;5080117;28;20483;-68
2021/07/29 08:03:19;;;;;;;1.33;1.30;;;21.30;98.00;;;;;;5080070;28;20448;-69
2021/07/29 08:05:46;;;;;;;1.30;1.27;;;21.40;98.00;;;;;;5079910;28;20548;-68
2021/07/29 08:08:13;;;;;;;1.50;1.30;;;21.50;98.00;;;;;;5088496;28;20448;-67
2021/07/29 08:10:41;;;;;;;1.20;1.20;;;21.60;98.00;;;;;;5088635;28;20452;-69
2021/07/29 08:13:11;;;;;;;1.40;1.30;;;21.80;98.00;;;;;;5088693;28;20491;-70
2021/07/29 08:15:40;;;;;;;1.20;1.10;;;21.90;98.00;;;;;;5088670;28;20467;-69
2021/07/29 08:18:07;;;;;;;2.57;1.47;;;21.90;98.00;;;;;;5088826;28;20448;-69
2021/07/29 08:20:34;;;;;;;1.20;1.20;;;22.00;98.00;;;;;;5088739;28;20525;-69
2021/07/29 08:23:00;;;;;;;1.53;1.20;;;22.20;98.00;;;;;;5088710;28;20790;-68
2021/07/29 08:25:27;;;;;;;1.50;1.40;;;22.30;98.00;;;;;;5088317;28;20509;-71
2021/07/29 08:27:55;;;;;;;1.30;1.20;;;22.40;98.00;;;;;;5088993;28;20495;-68
2021/07/29 08:30:22;;;;;;;2.23;1.40;;;22.20;97.40;;;;;;5090877;28;20484;-67
2021/07/29 08:32:50;;;;;;;2.07;1.57;;;22.10;95.30;;;;;;5091033;28;20509;-68
2021/07/29 08:35:18;;;;;;;1.63;1.30;;;22.00;96.20;;;;;;5090072;28;21025;-68
2021/07/29 08:37:49;;;;;;;2.07;1.60;;;22.00;95.70;;;;;;5091227;28;20448;-68
2021/07/29 08:40:18;;;;;;;1.50;1.13;;;22.00;96.90;;;;;;5091029;28;20488;-68
2021/07/29 08:42:45;;;;;;;1.60;1.40;;;22.20;97.90;;;;;;5091068;28;20530;-68
2021/07/29 08:45:13;;;;;;;1.73;1.20;;;22.40;96.60;;;;;;5090928;28;20456;-68
2021/07/29 08:47:44;;;;;;;2.40;1.43;;;22.50;95.00;;;;;;5073078;28;20451;-68
2021/07/29 08:50:13;;;;;;;1.30;1.20;;;22.50;95.30;;;;;;5090951;28;20547;-68
2021/07/29 08:52:40;;;;;;;1.80;1.50;;;22.40;94.70;;;;;;5090876;28;20484;-68
2021/07/29 08:55:08;;;;;;;1.30;1.20;;;22.50;94.70;;;;;;5091000;28;20499;-68
2021/07/29 08:57:37;;;;;;;1.50;1.20;;;22.70;94.10;;;;;;5090747;28;20456;-68
2021/07/29 09:00:08;;;;;;;1.30;1.20;;;22.50;94.40;;;;;;5090604;28;20488;-68
2021/07/29 09:02:35;;;;;;;2.03;1.60;;;22.50;94.80;;;;;;5090701;28;20481;-68
2021/07/29 09:05:20;;;;;;;1.40;1.30;;;22.50;94.70;;;;;;5090814;28;20983;-67
2021/07/29 09:08:03;;;;;;;2.33;1.20;;;22.40;93.60;;;;;;5090738;28;20823;-68
2021/07/29 09:10:32;;;;;;;1.20;1.10;;;22.30;94.50;;;;;;5090461;28;20452;-68
2021/07/29 09:13:12;;;;;;;1.57;1.20;;;22.30;94.70;;;;;;5090459;28;20492;-68
2021/07/29 09:15:40;;;;;;;1.30;1.20;;;22.40;95.40;;;;;;5090562;28;20534;-68
2021/07/29 09:18:08;;;;;;;1.30;1.13;;;22.50;96.10;;;;;;5055970;28;20993;-67
2021/07/29 09:20:37;;;;;;;1.40;1.30;;;22.50;96.60;;;;;;5090656;28;20518;-67
2021/07/29 09:23:19;;;;;;;1.33;1.30;;;22.70;95.30;;;;;;5072738;28;20479;-68
2021/07/29 09:25:48;;;;;;;1.33;1.17;;;22.80;94.40;;;;;;5089801;28;20950;-68
2021/07/29 09:28:36;;;;;;;1.30;1.23;;;22.90;94.60;;;;;;5089942;28;20464;-68
2021/07/29 09:31:16;;;;;;;2.50;1.77;;;22.80;93.30;;;;;;5090558;28;20522;-67
2021/07/29 09:33:59;;;;;;;1.30;1.30;;;22.70;95.20;;;;;;5090477;28;20523;-68
2021/07/29 09:36:31;;;;;;;1.53;1.40;;;22.70;93.90;;;;;;5087902;28;20505;-68
2021/07/29 09:39:18;;;;;;;1.50;1.47;;;22.80;95.10;;;;;;5089999;28;20447;-68
2021/07/29 09:41:45;;;;;;;1.60;1.30;;;23.10;91.80;;;;;;5091569;28;20883;-70
2021/07/29 09:44:14;;;;;;;1.40;1.30;;;23.20;90.80;;;;;;5090735;28;20452;-68
2021/07/29 09:46:42;;;;;;;1.40;1.30;;;23.20;91.80;;;;;;5091946;28;20458;-68
2021/07/29 09:49:09;;;;;;;1.97;1.37;;;23.30;90.30;;;;;;5056614;28;20475;-70
2021/07/29 09:51:41;;;;;;;1.40;1.40;;;23.50;92.90;;;;;;5091370;28;20452;-68
2021/07/29 09:54:09;;;;;;;1.80;1.37;;;23.70;90.90;;;;;;5091514;28;20487;-68
2021/07/29 09:56:37;;;;;;;1.63;1.50;;;23.80;91.20;;;;;;5091942;28;20463;-67
2021/07/29 09:59:05;;;;;;;1.67;1.30;;;24.00;87.10;;;;;;5091770;28;20950;-67
2021/07/29 10:01:33;;;;;;;1.40;1.30;;;24.10;87.80;;;;;;5091279;28;20452;-68
2021/07/29 10:04:03;;;;;;;1.33;1.27;;;24.10;87.80;;;;;;5090774;28;20480;-69
2021/07/29 10:06:33;;;;;;;1.73;1.60;;;24.00;88.10;;;;;;5090913;28;20542;-69
2021/07/29 10:09:08;;;;;;;2.23;1.60;;;24.10;86.90;;;;;;5082260;28;20492;-69
2021/07/29 10:11:36;;;;;;;1.20;1.20;;;24.20;86.60;;;;;;5082793;28;20459;-69
2021/07/29 10:14:03;;;;;;;1.50;1.20;;;24.20;87.90;;;;;;5090346;28;20519;-69
2021/07/29 10:16:47;;;;;;;1.80;1.30;;;24.40;88.20;;;;;;5090450;28;20513;-66
2021/07/29 10:19:14;;;;;;;1.70;1.60;;;24.60;87.30;;;;;;5089822;28;21022;-68
2021/07/29 10:21:42;;;;;;;1.53;1.40;;;24.80;85.30;;;;;;5090377;28;20560;-66
2021/07/29 10:24:11;;;;;;;1.60;1.30;;;24.70;85.50;;;;;;5090470;28;20833;-67
2021/07/29 10:27:08;;;;;;;1.93;1.40;;;24.70;86.40;;;;;;5090151;28;20575;-68
2021/07/29 10:29:35;;;;;;;2.60;1.50;;;25.00;89.40;;;;;;5089577;28;20938;-69
2021/07/29 10:32:08;;;;;;;1.63;1.50;;;25.30;89.00;;;;;;5090311;28;20806;-67
2021/07/29 10:34:36;;;;;;;1.47;1.40;;;25.70;85.90;;;;;;5072692;28;20887;-68
2021/07/29 10:37:04;;;;;;;1.97;1.70;;;25.90;84.40;;;;;;5072305;28;20483;-68
2021/07/29 10:39:33;;;;;;;2.40;1.77;;;25.90;84.10;;;;;;5071755;28;20487;-68
2021/07/29 10:42:01;;;;;;;1.50;1.50;;;25.90;82.40;;;;;;5088890;28;20491;-67
2021/07/29 10:44:48;;;;;;;1.50;1.30;;;25.70;84.60;;;;;;5089820;28;20452;-68
2021/07/29 10:47:17;;;;;;;1.70;1.30;;;25.60;85.70;;;;;;5090423;28;20464;-69
2021/07/29 10:50:15;;;;;;;1.40;1.40;;;25.50;84.30;;;;;;5087871;28;20811;-68
2021/07/29 10:52:49;;;;;;;1.60;1.40;;;25.60;83.70;;;;;;5055013;28;20455;-68
2021/07/29 10:55:19;;;;;;;2.13;1.50;;;25.90;84.50;;;;;;5089977;28;20936;-68
2021/07/29 10:58:03;;;;;;;1.70;1.40;;;25.90;84.90;;;;;;5071795;28;20455;-68
2021/07/29 11:00:31;;;;;;;1.70;1.50;;;25.50;84.90;;;;;;5089809;28;20452;-68
2021/07/29 11:03:06;;;;;;;1.80;1.53;;;25.30;85.30;;;;;;5071265;28;20491;-69
2021/07/29 11:05:43;;;;;;;1.40;1.23;;;25.30;85.40;;;;;;5072583;28;20486;-70
2021/07/29 11:08:12;;;;;;;1.60;1.40;;;25.30;84.00;;;;;;5089842;28;20448;-69
2021/07/29 11:10:41;;;;;;;1.60;1.40;;;25.10;83.10;;;;;;5088971;28;20452;-68
2021/07/29 11:13:09;;;;;;;2.70;1.80;;;24.80;84.70;;;;;;5089731;28;20483;-68
2021/07/29 11:15:38;;;;;;;1.47;1.30;;;24.60;85.40;;;;;;5089262;28;20560;-68
2021/07/29 11:18:17;;;;;;;1.37;1.33;;;24.80;85.20;;;;;;5089742;28;20946;-70
2021/07/29 11:20:44;;;;;;;1.90;1.80;;;25.00;86.00;;;;;;5081397;28;20546;-68
2021/07/29 11:23:14;;;;;;;1.37;1.33;;;25.20;84.40;;;;;;5089187;28;20942;-68
2021/07/29 11:26:01;;;;;;;2.70;1.87;;;25.50;84.20;;;;;;5071431;28;20462;-68
2021/07/29 11:28:29;;;;;;;1.50;1.40;;;25.70;82.60;;;;;;5089195;28;21083;-69
2021/07/29 11:30:56;;;;;;;1.57;1.30;;;25.90;83.00;;;;;;5089092;28;20552;-67
2021/07/29 11:33:25;;;;;;;1.40;1.30;;;26.10;82.30;;;;;;5089161;28;20942;-68
2021/07/29 11:35:53;;;;;;;2.37;1.70;;;26.40;82.10;;;;;;5088882;28;21048;-66
2021/07/29 11:38:22;;;;;;;2.43;1.50;;;26.70;80.30;;;;;;5088586;28;20491;-67
2021/07/29 11:41:00;;;;;;;1.77;1.50;;;27.10;80.40;;;;;;5088685;28;20483;-68
2021/07/29 11:43:28;;;;;;;1.40;1.40;;;26.80;79.60;;;;;;5087859;28;20459;-68
2021/07/29 11:46:05;;;;;;;1.67;1.53;;;26.60;79.40;;;;;;5089362;28;20460;-67
2021/07/29 11:48:33;;;;;;;1.93;1.37;;;26.90;79.50;;;;;;5089050;28;20470;-68
2021/07/29 11:51:00;;;;;;;1.80;1.50;;;26.80;79.60;;;;;;5085301;28;20492;-68
2021/07/29 11:53:38;;;;;;;2.00;1.50;;;26.80;77.70;;;;;;5088692;28;20440;-67
2021/07/29 11:56:09;;;;;;;1.63;1.50;;;26.50;80.90;;;;;;5089029;28;20463;-68
2021/07/29 11:58:37;;;;;;;1.93;1.63;;;26.10;80.70;;;;;;5088680;28;20924;-67
2021/07/29 12:01:14;;;;;;;2.83;1.60;;;25.90;82.10;;;;;;5088688;28;20537;-67
2021/07/29 12:03:45;;;;;;;3.03;2.53;;;26.00;81.90;;;;;;5088058;28;20456;-70
2021/07/29 12:06:27;;;;;;;1.83;1.40;;;26.10;80.80;;;;;;5088717;28;20451;-68
2021/07/29 12:08:57;;;;;;;1.70;1.50;;;26.20;80.40;;;;;;5087327;28;20467;-69
2021/07/29 12:11:30;;;;;;;2.80;1.60;;;26.30;82.30;;;;;;5088442;28;20491;-68
2021/07/29 12:13:57;;;;;;;1.87;1.33;;;26.40;82.30;;;;;;5070522;28;20878;-68
2021/07/29 12:16:46;;;;;;;1.80;1.43;;;26.50;80.10;;;;;;5088880;28;20889;-67
2021/07/29 12:19:13;;;;;;;2.20;1.43;;;26.60;79.70;;;;;;5088021;28;20480;-66
2021/07/29 12:21:40;;;;;;;2.10;1.60;;;26.90;80.10;;;;;;5088461;28;20866;-66
2021/07/29 12:24:08;;;;;;;2.03;1.33;;;27.10;78.70;;;;;;5088350;28;20461;-68
2021/07/29 12:26:39;;;;;;;2.67;1.60;;;27.20;77.50;;;;;;5088355;28;20516;-67
2021/07/29 12:29:06;;;;;;;1.90;1.50;;;27.30;78.10;;;;;;5088312;28;20476;-68
2021/07/29 12:31:34;;;;;;;1.63;1.50;;;27.10;78.40;;;;;;5088140;28;20456;-68
2021/07/29 12:34:02;;;;;;;1.70;1.50;;;27.10;79.20;;;;;;5088128;28;20487;-67
2021/07/29 12:36:42;;;;;;;1.63;1.40;;;27.20;78.00;;;;;;5088453;28;20495;-69
2021/07/29 12:39:10;;;;;;;1.93;1.57;;;27.00;78.80;;;;;;5088090;28;20482;-68
2021/07/29 12:41:40;;;;;;;1.50;1.40;;;26.70;79.00;;;;;;5089505;28;20460;-66
2021/07/29 12:44:08;;;;;;;1.40;1.30;;;26.60;80.10;;;;;;5090977;28;20452;-66
2021/07/29 12:46:36;;;;;;;2.37;1.57;;;26.50;80.30;;;;;;5091139;28;20448;-68
2021/07/29 12:49:03;;;;;;;2.43;1.67;;;26.60;84.60;;;;;;5073003;28;20460;-68
2021/07/29 12:51:41;;;;;;;1.93;1.53;;;27.10;83.60;;;;;;5090697;28;20484;-68
2021/07/29 12:54:11;;;;;;;1.30;1.23;;;27.70;83.80;;;;;;5090640;28;20463;-68
2021/07/29 12:56:40;;;;;;;3.20;1.80;;;28.00;79.10;;;;;;5090752;28;20514;-68